sensor_id;sensor_type;location;lat;lon;timestamp;P1;durP1;ratioP1;P2;durP2;ratioP2
43363;SDS011;40636;52.424;-1.948;2022-07-10T00:01:30;6.03;;;2.10;;
43363;SDS011;40636;52.424;-1.948;2022-07-10T00:03:57;3.88;;;2.03;;
43363;SDS011;40636;52.424;-1.948;2022-07-10T00:06:24;4.40;;;2.58;;
43363;SDS011;40636;52.424;-1.948;2022-07-10T00:08:53;4.18;;;2.20;;
43363;SDS011;40636;52.424;-1.948;2022-07-10T00:11:21;3.35;;;2.58;;
43363;SDS011;40636;52.424;-1.948;2022-07-10T00:13:48;3.65;;;2.63;;
43363;SDS011;40636;52.424;-1.948;2022-07-10T00:16:15;3.10;;;2.58;;
43363;SDS011;40636;52.424;-1.948;2022-07-10T00:18:42;3.78;;;2.30;;
43363;SDS011;40636;52.424;-1.948;2022-07-10T00:21:09;3.83;;;2.50;;
43363;SDS011;40636;52.424;-1.948;2022-07-10T00:23:37;6.30;;;3.63;;
43363;SDS011;40636;52.424;-1.948;2022-07-10T00:26:04;5.13;;;2.78;;
43363;SDS011;40636;52.424;-1.948;2022-07-10T00:28:31;4.07;;;2.88;;
43363;SDS011;40636;52.424;-1.948;2022-07-10T00:30:58;5.88;;;3.40;;
43363;SDS011;40636;52.424;-1.948;2022-07-10T00:33:25;5.38;;;3.50;;
43363;SDS011;40636;52.424;-1.948;2022-07-10T00:35:52;4.00;;;3.28;;
43363;SDS011;40636;52.424;-1.948;2022-07-10T00:38:19;7.55;;;4.65;;
43363;SDS011;40636;52.424;-1.948;2022-07-10T00:40:46;5.88;;;3.10;;
43363;SDS011;40636;52.424;-1.948;2022-07-10T00:43:13;7.35;;;4.03;;
43363;SDS011;40636;52.424;-1.948;2022-07-10T00:45:40;8.30;;;3.33;;
43363;SDS011;40636;52.424;-1.948;2022-07-10T00:48:08;6.05;;;4.45;;
43363;SDS011;40636;52.424;-1.948;2022-07-10T00:50:35;6.78;;;4.78;;
43363;SDS011;40636;52.424;-1.948;2022-07-10T00:53:02;7.05;;;4.00;;
43363;SDS011;40636;52.424;-1.948;2022-07-10T00:55:30;5.53;;;4.40;;
43363;SDS011;40636;52.424;-1.948;2022-07-10T00:57:58;8.48;;;5.25;;
43363;SDS011;40636;52.424;-1.948;2022-07-10T01:00:26;6.90;;;4.50;;
43363;SDS011;40636;52.424;-1.948;2022-07-10T01:02:55;7.40;;;4.15;;
43363;SDS011;40636;52.424;-1.948;2022-07-10T01:05:22;6.35;;;4.32;;
43363;SDS011;40636;52.424;-1.948;2022-07-10T01:07:49;5.72;;;3.85;;
43363;SDS011;40636;52.424;-1.948;2022-07-10T01:10:16;7.07;;;5.03;;
43363;SDS011;40636;52.424;-1.948;2022-07-10T01:12:43;8.98;;;4.13;;
43363;SDS011;40636;52.424;-1.948;2022-07-10T01:15:11;5.38;;;4.00;;
43363;SDS011;40636;52.424;-1.948;2022-07-10T01:17:38;7.07;;;4.03;;
43363;SDS011;40636;52.424;-1.948;2022-07-10T01:20:08;5.30;;;4.05;;
43363;SDS011;40636;52.424;-1.948;2022-07-10T01:22:36;6.63;;;4.28;;
43363;SDS011;40636;52.424;-1.948;2022-07-10T01:25:04;5.70;;;4.25;;
43363;SDS011;40636;52.424;-1.948;2022-07-10T01:27:32;8.80;;;3.97;;
43363;SDS011;40636;52.424;-1.948;2022-07-10T01:29:59;7.07;;;3.58;;
43363;SDS011;40636;52.424;-1.948;2022-07-10T01:32:26;7.65;;;4.25;;
43363;SDS011;40636;52.424;-1.948;2022-07-10T01:35:02;4.77;;;3.53;;
43363;SDS011;40636;52.424;-1.948;2022-07-10T01:37:29;5.43;;;3.72;;
43363;SDS011;40636;52.424;-1.948;2022-07-10T01:39:56;8.32;;;4.50;;
43363;SDS011;40636;52.424;-1.948;2022-07-10T01:42:23;6.70;;;3.85;;
43363;SDS011;40636;52.424;-1.948;2022-07-10T01:44:54;6.00;;;4.28;;
43363;SDS011;40636;52.424;-1.948;2022-07-10T01:47:21;9.05;;;3.65;;
43363;SDS011;40636;52.424;-1.948;2022-07-10T01:49:52;7.60;;;4.40;;
43363;SDS011;40636;52.424;-1.948;2022-07-10T01:52:20;7.25;;;3.70;;
43363;SDS011;40636;52.424;-1.948;2022-07-10T01:54:47;5.38;;;3.80;;
43363;SDS011;40636;52.424;-1.948;2022-07-10T01:57:15;5.95;;;3.92;;
43363;SDS011;40636;52.424;-1.948;2022-07-10T01:59:42;6.82;;;4.25;;
43363;SDS011;40636;52.424;-1.948;2022-07-10T02:02:09;5.78;;;3.47;;
43363;SDS011;40636;52.424;-1.948;2022-07-10T02:04:36;6.22;;;3.85;;
43363;SDS011;40636;52.424;-1.948;2022-07-10T02:09:37;4.95;;;4.18;;
43363;SDS011;40636;52.424;-1.948;2022-07-10T02:12:05;8.05;;;3.78;;
43363;SDS011;40636;52.424;-1.948;2022-07-10T02:14:34;8.60;;;5.13;;
43363;SDS011;40636;52.424;-1.948;2022-07-10T02:17:01;6.47;;;4.00;;
43363;SDS011;40636;52.424;-1.948;2022-07-10T02:19:28;7.10;;;4.05;;
43363;SDS011;40636;52.424;-1.948;2022-07-10T02:21:56;6.80;;;4.30;;
43363;SDS011;40636;52.424;-1.948;2022-07-10T02:24:23;5.78;;;4.28;;
43363;SDS011;40636;52.424;-1.948;2022-07-10T02:26:50;6.82;;;4.38;;
43363;SDS011;40636;52.424;-1.948;2022-07-10T02:29:17;6.93;;;4.65;;
43363;SDS011;40636;52.424;-1.948;2022-07-10T02:31:44;8.00;;;4.75;;
43363;SDS011;40636;52.424;-1.948;2022-07-10T02:34:11;8.05;;;4.53;;
43363;SDS011;40636;52.424;-1.948;2022-07-10T02:36:40;7.30;;;3.58;;
43363;SDS011;40636;52.424;-1.948;2022-07-10T02:39:07;7.07;;;4.28;;
43363;SDS011;40636;52.424;-1.948;2022-07-10T02:41:34;9.07;;;4.35;;
43363;SDS011;40636;52.424;-1.948;2022-07-10T02:44:02;7.30;;;4.03;;
43363;SDS011;40636;52.424;-1.948;2022-07-10T02:46:30;7.30;;;5.03;;
43363;SDS011;40636;52.424;-1.948;2022-07-10T02:48:57;5.43;;;3.97;;
43363;SDS011;40636;52.424;-1.948;2022-07-10T02:51:24;6.05;;;4.13;;
43363;SDS011;40636;52.424;-1.948;2022-07-10T02:53:51;6.40;;;3.58;;
43363;SDS011;40636;52.424;-1.948;2022-07-10T02:56:18;6.55;;;4.05;;
43363;SDS011;40636;52.424;-1.948;2022-07-10T02:58:45;6.20;;;3.78;;
43363;SDS011;40636;52.424;-1.948;2022-07-10T03:01:12;6.03;;;4.10;;
43363;SDS011;40636;52.424;-1.948;2022-07-10T03:03:39;6.90;;;4.45;;
43363;SDS011;40636;52.424;-1.948;2022-07-10T03:06:06;5.95;;;4.10;;
43363;SDS011;40636;52.424;-1.948;2022-07-10T03:08:33;6.35;;;4.45;;
43363;SDS011;40636;52.424;-1.948;2022-07-10T03:11:00;6.00;;;4.53;;
43363;SDS011;40636;52.424;-1.948;2022-07-10T03:13:26;5.95;;;4.35;;
43363;SDS011;40636;52.424;-1.948;2022-07-10T03:15:54;8.82;;;4.32;;
43363;SDS011;40636;52.424;-1.948;2022-07-10T03:18:21;6.78;;;4.38;;
43363;SDS011;40636;52.424;-1.948;2022-07-10T03:20:48;8.77;;;4.65;;
43363;SDS011;40636;52.424;-1.948;2022-07-10T03:23:15;6.78;;;4.35;;
43363;SDS011;40636;52.424;-1.948;2022-07-10T03:25:42;6.43;;;4.38;;
43363;SDS011;40636;52.424;-1.948;2022-07-10T03:28:09;7.78;;;4.05;;
43363;SDS011;40636;52.424;-1.948;2022-07-10T03:30:36;8.55;;;4.68;;
43363;SDS011;40636;52.424;-1.948;2022-07-10T03:33:03;7.53;;;4.35;;
43363;SDS011;40636;52.424;-1.948;2022-07-10T03:35:30;5.03;;;3.53;;
43363;SDS011;40636;52.424;-1.948;2022-07-10T03:38:00;5.00;;;3.58;;
43363;SDS011;40636;52.424;-1.948;2022-07-10T03:40:27;5.13;;;3.92;;
43363;SDS011;40636;52.424;-1.948;2022-07-10T03:42:54;7.45;;;4.50;;
43363;SDS011;40636;52.424;-1.948;2022-07-10T03:45:21;5.68;;;3.95;;
43363;SDS011;40636;52.424;-1.948;2022-07-10T03:47:48;7.38;;;3.75;;
43363;SDS011;40636;52.424;-1.948;2022-07-10T03:50:14;5.30;;;3.90;;
43363;SDS011;40636;52.424;-1.948;2022-07-10T03:52:41;6.20;;;3.67;;
43363;SDS011;40636;52.424;-1.948;2022-07-10T03:55:10;6.45;;;4.35;;
43363;SDS011;40636;52.424;-1.948;2022-07-10T03:57:37;6.35;;;3.83;;
43363;SDS011;40636;52.424;-1.948;2022-07-10T04:00:23;6.32;;;3.80;;
43363;SDS011;40636;52.424;-1.948;2022-07-10T04:02:54;6.60;;;4.25;;
43363;SDS011;40636;52.424;-1.948;2022-07-10T04:05:27;6.47;;;4.53;;
43363;SDS011;40636;52.424;-1.948;2022-07-10T04:07:55;8.80;;;4.05;;
43363;SDS011;40636;52.424;-1.948;2022-07-10T04:10:23;5.70;;;4.07;;
43363;SDS011;40636;52.424;-1.948;2022-07-10T04:12:52;5.25;;;3.70;;
43363;SDS011;40636;52.424;-1.948;2022-07-10T04:15:19;6.40;;;3.97;;
43363;SDS011;40636;52.424;-1.948;2022-07-10T04:17:50;5.97;;;4.00;;
43363;SDS011;40636;52.424;-1.948;2022-07-10T04:20:18;5.45;;;3.75;;
43363;SDS011;40636;52.424;-1.948;2022-07-10T04:22:45;5.15;;;3.92;;
43363;SDS011;40636;52.424;-1.948;2022-07-10T04:25:13;5.32;;;3.80;;
43363;SDS011;40636;52.424;-1.948;2022-07-10T04:27:40;5.82;;;4.18;;
43363;SDS011;40636;52.424;-1.948;2022-07-10T04:30:07;7.65;;;3.67;;
43363;SDS011;40636;52.424;-1.948;2022-07-10T04:32:34;4.47;;;3.70;;
43363;SDS011;40636;52.424;-1.948;2022-07-10T04:35:01;6.50;;;3.97;;
43363;SDS011;40636;52.424;-1.948;2022-07-10T04:37:28;5.72;;;4.05;;
43363;SDS011;40636;52.424;-1.948;2022-07-10T04:39:55;6.38;;;3.67;;
43363;SDS011;40636;52.424;-1.948;2022-07-10T04:42:24;5.40;;;3.20;;
43363;SDS011;40636;52.424;-1.948;2022-07-10T04:44:52;5.80;;;3.47;;
43363;SDS011;40636;52.424;-1.948;2022-07-10T04:47:19;5.25;;;3.92;;
43363;SDS011;40636;52.424;-1.948;2022-07-10T04:49:46;6.55;;;3.58;;
43363;SDS011;40636;52.424;-1.948;2022-07-10T04:52:13;6.45;;;4.00;;
43363;SDS011;40636;52.424;-1.948;2022-07-10T04:54:40;8.20;;;4.72;;
43363;SDS011;40636;52.424;-1.948;2022-07-10T04:57:07;7.68;;;3.90;;
43363;SDS011;40636;52.424;-1.948;2022-07-10T04:59:34;5.18;;;3.33;;
43363;SDS011;40636;52.424;-1.948;2022-07-10T05:02:01;5.38;;;3.95;;
43363;SDS011;40636;52.424;-1.948;2022-07-10T05:04:29;6.70;;;3.80;;
43363;SDS011;40636;52.424;-1.948;2022-07-10T05:06:56;6.35;;;4.00;;
43363;SDS011;40636;52.424;-1.948;2022-07-10T05:09:23;5.53;;;3.97;;
43363;SDS011;40636;52.424;-1.948;2022-07-10T05:11:50;3.78;;;3.33;;
43363;SDS011;40636;52.424;-1.948;2022-07-10T05:14:17;4.32;;;3.30;;
43363;SDS011;40636;52.424;-1.948;2022-07-10T05:16:44;4.00;;;3.15;;
43363;SDS011;40636;52.424;-1.948;2022-07-10T05:19:10;8.80;;;4.78;;
43363;SDS011;40636;52.424;-1.948;2022-07-10T05:21:39;4.47;;;3.05;;
43363;SDS011;40636;52.424;-1.948;2022-07-10T05:24:06;5.07;;;2.95;;
43363;SDS011;40636;52.424;-1.948;2022-07-10T05:26:33;5.90;;;2.92;;
43363;SDS011;40636;52.424;-1.948;2022-07-10T05:29:00;3.92;;;2.97;;
43363;SDS011;40636;52.424;-1.948;2022-07-10T05:31:27;3.70;;;3.03;;
43363;SDS011;40636;52.424;-1.948;2022-07-10T05:33:54;3.08;;;2.75;;
43363;SDS011;40636;52.424;-1.948;2022-07-10T05:36:21;3.90;;;2.63;;
43363;SDS011;40636;52.424;-1.948;2022-07-10T05:38:48;3.50;;;2.58;;
43363;SDS011;40636;52.424;-1.948;2022-07-10T05:41:15;4.13;;;2.60;;
43363;SDS011;40636;52.424;-1.948;2022-07-10T05:43:42;3.53;;;2.50;;
43363;SDS011;40636;52.424;-1.948;2022-07-10T05:46:09;4.40;;;2.35;;
43363;SDS011;40636;52.424;-1.948;2022-07-10T05:48:37;3.80;;;3.08;;
43363;SDS011;40636;52.424;-1.948;2022-07-10T05:51:05;3.10;;;2.33;;
43363;SDS011;40636;52.424;-1.948;2022-07-10T05:53:52;2.95;;;1.75;;
43363;SDS011;40636;52.424;-1.948;2022-07-10T05:56:19;2.72;;;1.95;;
43363;SDS011;40636;52.424;-1.948;2022-07-10T05:58:46;2.63;;;1.52;;
43363;SDS011;40636;52.424;-1.948;2022-07-10T06:01:13;2.55;;;1.88;;
43363;SDS011;40636;52.424;-1.948;2022-07-10T06:03:40;2.47;;;2.10;;
43363;SDS011;40636;52.424;-1.948;2022-07-10T06:06:07;5.30;;;1.90;;
43363;SDS011;40636;52.424;-1.948;2022-07-10T06:08:34;3.60;;;2.30;;
43363;SDS011;40636;52.424;-1.948;2022-07-10T06:11:02;4.90;;;3.35;;
43363;SDS011;40636;52.424;-1.948;2022-07-10T06:13:29;3.20;;;2.05;;
43363;SDS011;40636;52.424;-1.948;2022-07-10T06:15:55;3.92;;;2.25;;
43363;SDS011;40636;52.424;-1.948;2022-07-10T06:18:23;3.42;;;1.98;;
43363;SDS011;40636;52.424;-1.948;2022-07-10T06:20:50;2.65;;;1.67;;
43363;SDS011;40636;52.424;-1.948;2022-07-10T06:23:18;2.15;;;1.85;;
43363;SDS011;40636;52.424;-1.948;2022-07-10T06:25:45;9.23;;;2.30;;
43363;SDS011;40636;52.424;-1.948;2022-07-10T06:28:12;2.00;;;1.80;;
43363;SDS011;40636;52.424;-1.948;2022-07-10T06:30:39;2.83;;;1.98;;
43363;SDS011;40636;52.424;-1.948;2022-07-10T06:33:06;2.13;;;1.70;;
43363;SDS011;40636;52.424;-1.948;2022-07-10T06:35:33;2.78;;;1.92;;
43363;SDS011;40636;52.424;-1.948;2022-07-10T06:38:00;2.08;;;1.80;;
43363;SDS011;40636;52.424;-1.948;2022-07-10T06:40:30;2.08;;;1.80;;
43363;SDS011;40636;52.424;-1.948;2022-07-10T06:43:03;5.78;;;2.47;;
43363;SDS011;40636;52.424;-1.948;2022-07-10T06:45:31;2.30;;;1.55;;
43363;SDS011;40636;52.424;-1.948;2022-07-10T06:47:58;5.53;;;1.92;;
43363;SDS011;40636;52.424;-1.948;2022-07-10T06:50:26;3.22;;;1.90;;
43363;SDS011;40636;52.424;-1.948;2022-07-10T06:52:59;2.50;;;1.85;;
43363;SDS011;40636;52.424;-1.948;2022-07-10T06:55:28;3.42;;;1.50;;
43363;SDS011;40636;52.424;-1.948;2022-07-10T06:57:55;6.50;;;2.25;;
43363;SDS011;40636;52.424;-1.948;2022-07-10T07:00:22;6.60;;;1.80;;
43363;SDS011;40636;52.424;-1.948;2022-07-10T07:02:50;1.58;;;1.10;;
43363;SDS011;40636;52.424;-1.948;2022-07-10T07:05:17;1.73;;;1.30;;
43363;SDS011;40636;52.424;-1.948;2022-07-10T07:07:44;2.15;;;1.30;;
43363;SDS011;40636;52.424;-1.948;2022-07-10T07:10:11;1.73;;;1.42;;
43363;SDS011;40636;52.424;-1.948;2022-07-10T07:12:39;2.80;;;1.42;;
43363;SDS011;40636;52.424;-1.948;2022-07-10T07:15:08;1.70;;;1.42;;
43363;SDS011;40636;52.424;-1.948;2022-07-10T07:17:43;2.30;;;1.58;;
43363;SDS011;40636;52.424;-1.948;2022-07-10T07:20:29;2.28;;;1.80;;
43363;SDS011;40636;52.424;-1.948;2022-07-10T07:23:15;1.25;;;1.17;;
43363;SDS011;40636;52.424;-1.948;2022-07-10T07:25:44;1.65;;;1.40;;
43363;SDS011;40636;52.424;-1.948;2022-07-10T07:28:16;1.85;;;1.20;;
43363;SDS011;40636;52.424;-1.948;2022-07-10T07:30:48;1.38;;;1.30;;
43363;SDS011;40636;52.424;-1.948;2022-07-10T07:33:17;3.38;;;1.20;;
43363;SDS011;40636;52.424;-1.948;2022-07-10T07:35:45;1.73;;;1.60;;
43363;SDS011;40636;52.424;-1.948;2022-07-10T07:38:12;1.50;;;1.35;;
43363;SDS011;40636;52.424;-1.948;2022-07-10T07:40:39;2.75;;;1.30;;
43363;SDS011;40636;52.424;-1.948;2022-07-10T07:43:06;2.72;;;1.65;;
43363;SDS011;40636;52.424;-1.948;2022-07-10T07:45:33;2.40;;;1.40;;
43363;SDS011;40636;52.424;-1.948;2022-07-10T07:48:00;1.35;;;1.23;;
43363;SDS011;40636;52.424;-1.948;2022-07-10T07:50:32;1.63;;;1.25;;
43363;SDS011;40636;52.424;-1.948;2022-07-10T07:53:01;1.67;;;1.55;;
43363;SDS011;40636;52.424;-1.948;2022-07-10T07:55:30;2.50;;;1.40;;
43363;SDS011;40636;52.424;-1.948;2022-07-10T07:57:59;2.08;;;1.20;;
43363;SDS011;40636;52.424;-1.948;2022-07-10T08:00:27;2.97;;;1.42;;
43363;SDS011;40636;52.424;-1.948;2022-07-10T08:02:55;1.95;;;1.55;;
43363;SDS011;40636;52.424;-1.948;2022-07-10T08:05:23;3.05;;;1.85;;
43363;SDS011;40636;52.424;-1.948;2022-07-10T08:07:51;3.95;;;2.13;;
43363;SDS011;40636;52.424;-1.948;2022-07-10T08:10:21;1.95;;;1.52;;
43363;SDS011;40636;52.424;-1.948;2022-07-10T08:12:50;2.20;;;1.33;;
43363;SDS011;40636;52.424;-1.948;2022-07-10T08:15:18;2.22;;;1.50;;
43363;SDS011;40636;52.424;-1.948;2022-07-10T08:17:50;2.00;;;1.38;;
43363;SDS011;40636;52.424;-1.948;2022-07-10T08:20:22;4.28;;;2.08;;
43363;SDS011;40636;52.424;-1.948;2022-07-10T08:22:50;1.73;;;1.38;;
43363;SDS011;40636;52.424;-1.948;2022-07-10T08:25:25;2.80;;;1.50;;
43363;SDS011;40636;52.424;-1.948;2022-07-10T08:27:52;3.60;;;1.60;;
43363;SDS011;40636;52.424;-1.948;2022-07-10T08:30:19;2.97;;;1.77;;
43363;SDS011;40636;52.424;-1.948;2022-07-10T08:32:46;2.65;;;1.25;;
43363;SDS011;40636;52.424;-1.948;2022-07-10T08:35:15;1.48;;;1.38;;
43363;SDS011;40636;52.424;-1.948;2022-07-10T08:37:42;1.35;;;1.20;;
43363;SDS011;40636;52.424;-1.948;2022-07-10T08:40:15;2.55;;;1.45;;
43363;SDS011;40636;52.424;-1.948;2022-07-10T08:42:43;1.30;;;1.20;;
43363;SDS011;40636;52.424;-1.948;2022-07-10T08:45:11;3.40;;;1.23;;
43363;SDS011;40636;52.424;-1.948;2022-07-10T08:47:40;2.08;;;1.30;;
43363;SDS011;40636;52.424;-1.948;2022-07-10T08:50:15;3.20;;;2.20;;
43363;SDS011;40636;52.424;-1.948;2022-07-10T08:55:49;2.75;;;1.40;;
43363;SDS011;40636;52.424;-1.948;2022-07-10T08:58:16;3.15;;;1.80;;
43363;SDS011;40636;52.424;-1.948;2022-07-10T09:00:48;2.40;;;1.30;;
43363;SDS011;40636;52.424;-1.948;2022-07-10T09:03:15;1.23;;;1.13;;
43363;SDS011;40636;52.424;-1.948;2022-07-10T09:05:42;1.48;;;1.35;;
43363;SDS011;40636;52.424;-1.948;2022-07-10T09:08:31;1.58;;;1.33;;
43363;SDS011;40636;52.424;-1.948;2022-07-10T09:11:12;4.70;;;1.40;;
43363;SDS011;40636;52.424;-1.948;2022-07-10T09:13:53;2.88;;;1.75;;
43363;SDS011;40636;52.424;-1.948;2022-07-10T09:18:50;1.92;;;1.48;;
43363;SDS011;40636;52.424;-1.948;2022-07-10T09:21:17;1.60;;;1.50;;
43363;SDS011;40636;52.424;-1.948;2022-07-10T09:23:44;1.55;;;1.30;;
43363;SDS011;40636;52.424;-1.948;2022-07-10T09:26:11;2.55;;;1.40;;
43363;SDS011;40636;52.424;-1.948;2022-07-10T09:28:41;0.95;;;0.90;;
43363;SDS011;40636;52.424;-1.948;2022-07-10T09:31:08;2.30;;;1.60;;
43363;SDS011;40636;52.424;-1.948;2022-07-10T09:33:35;1.83;;;1.40;;
43363;SDS011;40636;52.424;-1.948;2022-07-10T09:36:04;2.63;;;1.20;;
43363;SDS011;40636;52.424;-1.948;2022-07-10T09:41:13;1.48;;;1.02;;
43363;SDS011;40636;52.424;-1.948;2022-07-10T09:43:47;1.88;;;1.27;;
43363;SDS011;40636;52.424;-1.948;2022-07-10T09:46:32;2.38;;;1.50;;
43363;SDS011;40636;52.424;-1.948;2022-07-10T09:49:01;1.20;;;1.08;;
43363;SDS011;40636;52.424;-1.948;2022-07-10T09:51:30;2.38;;;1.17;;
43363;SDS011;40636;52.424;-1.948;2022-07-10T09:54:00;2.22;;;1.30;;
43363;SDS011;40636;52.424;-1.948;2022-07-10T09:56:41;1.13;;;1.02;;
43363;SDS011;40636;52.424;-1.948;2022-07-10T09:59:18;2.55;;;1.38;;
43363;SDS011;40636;52.424;-1.948;2022-07-10T10:01:48;3.00;;;1.27;;
43363;SDS011;40636;52.424;-1.948;2022-07-10T10:04:18;1.15;;;1.00;;
43363;SDS011;40636;52.424;-1.948;2022-07-10T10:06:47;0.95;;;0.90;;
43363;SDS011;40636;52.424;-1.948;2022-07-10T10:09:26;1.25;;;0.95;;
43363;SDS011;40636;52.424;-1.948;2022-07-10T10:11:59;1.45;;;1.20;;
43363;SDS011;40636;52.424;-1.948;2022-07-10T10:14:31;2.03;;;1.40;;
43363;SDS011;40636;52.424;-1.948;2022-07-10T10:17:00;1.20;;;1.10;;
43363;SDS011;40636;52.424;-1.948;2022-07-10T10:19:29;1.67;;;1.55;;
43363;SDS011;40636;52.424;-1.948;2022-07-10T10:22:17;1.70;;;1.25;;
43363;SDS011;40636;52.424;-1.948;2022-07-10T10:24:45;3.67;;;1.50;;
43363;SDS011;40636;52.424;-1.948;2022-07-10T10:27:14;1.25;;;1.15;;
43363;SDS011;40636;52.424;-1.948;2022-07-10T10:29:42;2.83;;;1.40;;
43363;SDS011;40636;52.424;-1.948;2022-07-10T10:32:10;2.25;;;1.40;;
43363;SDS011;40636;52.424;-1.948;2022-07-10T10:34:47;2.97;;;2.17;;
43363;SDS011;40636;52.424;-1.948;2022-07-10T10:37:38;2.08;;;1.55;;
43363;SDS011;40636;52.424;-1.948;2022-07-10T10:40:09;2.33;;;1.67;;
43363;SDS011;40636;52.424;-1.948;2022-07-10T10:42:42;2.60;;;1.67;;
43363;SDS011;40636;52.424;-1.948;2022-07-10T10:47:58;4.35;;;1.67;;
43363;SDS011;40636;52.424;-1.948;2022-07-10T10:50:53;3.17;;;1.98;;
43363;SDS011;40636;52.424;-1.948;2022-07-10T10:53:23;3.45;;;2.05;;
43363;SDS011;40636;52.424;-1.948;2022-07-10T10:58:44;1.88;;;1.67;;
43363;SDS011;40636;52.424;-1.948;2022-07-10T11:01:25;2.65;;;1.98;;
43363;SDS011;40636;52.424;-1.948;2022-07-10T11:04:13;3.03;;;1.90;;
43363;SDS011;40636;52.424;-1.948;2022-07-10T11:06:45;4.13;;;2.40;;
43363;SDS011;40636;52.424;-1.948;2022-07-10T11:09:29;2.78;;;2.08;;
43363;SDS011;40636;52.424;-1.948;2022-07-10T11:14:25;3.67;;;2.55;;
43363;SDS011;40636;52.424;-1.948;2022-07-10T11:16:55;5.03;;;2.30;;
43363;SDS011;40636;52.424;-1.948;2022-07-10T11:19:26;3.40;;;2.50;;
43363;SDS011;40636;52.424;-1.948;2022-07-10T11:30:46;4.18;;;3.15;;
43363;SDS011;40636;52.424;-1.948;2022-07-10T11:33:18;5.68;;;2.50;;
43363;SDS011;40636;52.424;-1.948;2022-07-10T11:35:50;4.57;;;3.05;;
43363;SDS011;40636;52.424;-1.948;2022-07-10T11:38:20;3.78;;;3.05;;
43363;SDS011;40636;52.424;-1.948;2022-07-10T11:40:48;6.70;;;3.13;;
43363;SDS011;40636;52.424;-1.948;2022-07-10T11:43:15;6.85;;;3.05;;
43363;SDS011;40636;52.424;-1.948;2022-07-10T11:45:48;4.15;;;3.25;;
43363;SDS011;40636;52.424;-1.948;2022-07-10T11:48:19;3.45;;;2.60;;
43363;SDS011;40636;52.424;-1.948;2022-07-10T11:50:52;3.38;;;2.25;;
43363;SDS011;40636;52.424;-1.948;2022-07-10T11:53:23;3.70;;;2.92;;
43363;SDS011;40636;52.424;-1.948;2022-07-10T11:55:52;4.85;;;3.20;;
43363;SDS011;40636;52.424;-1.948;2022-07-10T11:58:19;4.68;;;2.95;;
43363;SDS011;40636;52.424;-1.948;2022-07-10T12:00:56;4.40;;;3.08;;
43363;SDS011;40636;52.424;-1.948;2022-07-10T12:03:26;4.57;;;3.38;;
43363;SDS011;40636;52.424;-1.948;2022-07-10T12:05:55;4.82;;;3.22;;
43363;SDS011;40636;52.424;-1.948;2022-07-10T12:08:29;4.55;;;3.10;;
43363;SDS011;40636;52.424;-1.948;2022-07-10T12:11:15;5.00;;;3.33;;
43363;SDS011;40636;52.424;-1.948;2022-07-10T12:13:45;4.75;;;3.00;;
43363;SDS011;40636;52.424;-1.948;2022-07-10T12:16:14;4.88;;;3.30;;
43363;SDS011;40636;52.424;-1.948;2022-07-10T12:18:41;5.07;;;3.25;;
43363;SDS011;40636;52.424;-1.948;2022-07-10T12:21:10;5.43;;;3.55;;
43363;SDS011;40636;52.424;-1.948;2022-07-10T12:23:42;6.03;;;2.97;;
43363;SDS011;40636;52.424;-1.948;2022-07-10T12:26:11;3.88;;;2.22;;
43363;SDS011;40636;52.424;-1.948;2022-07-10T12:28:50;3.63;;;2.40;;
43363;SDS011;40636;52.424;-1.948;2022-07-10T12:31:26;4.05;;;2.70;;
43363;SDS011;40636;52.424;-1.948;2022-07-10T12:33:55;3.75;;;2.28;;
43363;SDS011;40636;52.424;-1.948;2022-07-10T12:36:45;3.58;;;2.40;;
43363;SDS011;40636;52.424;-1.948;2022-07-10T12:39:19;3.80;;;2.50;;
43363;SDS011;40636;52.424;-1.948;2022-07-10T12:42:01;4.38;;;3.10;;
43363;SDS011;40636;52.424;-1.948;2022-07-10T12:44:31;6.95;;;2.67;;
43363;SDS011;40636;52.424;-1.948;2022-07-10T12:49:55;4.53;;;2.40;;
43363;SDS011;40636;52.424;-1.948;2022-07-10T12:52:31;4.95;;;2.63;;
43363;SDS011;40636;52.424;-1.948;2022-07-10T12:57:55;4.90;;;3.20;;
43363;SDS011;40636;52.424;-1.948;2022-07-10T13:03:06;5.00;;;3.30;;
43363;SDS011;40636;52.424;-1.948;2022-07-10T13:08:08;4.93;;;3.42;;
43363;SDS011;40636;52.424;-1.948;2022-07-10T13:10:40;10.60;;;6.65;;
43363;SDS011;40636;52.424;-1.948;2022-07-10T13:13:08;23.05;;;13.45;;
43363;SDS011;40636;52.424;-1.948;2022-07-10T13:15:35;6.55;;;3.85;;
43363;SDS011;40636;52.424;-1.948;2022-07-10T13:18:07;4.47;;;2.88;;
43363;SDS011;40636;52.424;-1.948;2022-07-10T13:20:35;12.57;;;7.75;;
43363;SDS011;40636;52.424;-1.948;2022-07-10T13:23:01;5.38;;;3.13;;
43363;SDS011;40636;52.424;-1.948;2022-07-10T13:25:28;23.13;;;12.80;;
43363;SDS011;40636;52.424;-1.948;2022-07-10T13:27:55;4.90;;;3.30;;
43363;SDS011;40636;52.424;-1.948;2022-07-10T13:30:23;3.30;;;2.25;;
43363;SDS011;40636;52.424;-1.948;2022-07-10T13:32:50;2.15;;;1.90;;
43363;SDS011;40636;52.424;-1.948;2022-07-10T13:35:18;5.25;;;3.58;;
43363;SDS011;40636;52.424;-1.948;2022-07-10T13:37:45;3.78;;;2.85;;
43363;SDS011;40636;52.424;-1.948;2022-07-10T13:40:13;3.65;;;2.30;;
43363;SDS011;40636;52.424;-1.948;2022-07-10T13:42:40;3.58;;;2.90;;
43363;SDS011;40636;52.424;-1.948;2022-07-10T13:45:07;2.42;;;1.92;;
43363;SDS011;40636;52.424;-1.948;2022-07-10T13:47:36;2.90;;;1.90;;
43363;SDS011;40636;52.424;-1.948;2022-07-10T13:50:04;3.58;;;1.58;;
43363;SDS011;40636;52.424;-1.948;2022-07-10T13:52:32;4.88;;;2.30;;
43363;SDS011;40636;52.424;-1.948;2022-07-10T13:54:59;1.77;;;1.63;;
43363;SDS011;40636;52.424;-1.948;2022-07-10T13:57:27;2.70;;;2.15;;
43363;SDS011;40636;52.424;-1.948;2022-07-10T13:59:54;2.72;;;1.77;;
43363;SDS011;40636;52.424;-1.948;2022-07-10T14:02:21;3.88;;;2.13;;
43363;SDS011;40636;52.424;-1.948;2022-07-10T14:04:49;2.88;;;2.10;;
43363;SDS011;40636;52.424;-1.948;2022-07-10T14:07:16;3.65;;;1.70;;
43363;SDS011;40636;52.424;-1.948;2022-07-10T14:09:43;3.13;;;1.45;;
43363;SDS011;40636;52.424;-1.948;2022-07-10T14:12:10;3.83;;;2.47;;
43363;SDS011;40636;52.424;-1.948;2022-07-10T14:14:37;3.35;;;1.67;;
43363;SDS011;40636;52.424;-1.948;2022-07-10T14:17:06;2.22;;;1.50;;
43363;SDS011;40636;52.424;-1.948;2022-07-10T14:19:33;2.63;;;1.40;;
43363;SDS011;40636;52.424;-1.948;2022-07-10T14:22:00;2.58;;;1.50;;
43363;SDS011;40636;52.424;-1.948;2022-07-10T14:24:28;3.10;;;1.73;;
43363;SDS011;40636;52.424;-1.948;2022-07-10T14:26:56;2.55;;;1.52;;
43363;SDS011;40636;52.424;-1.948;2022-07-10T14:29:22;1.80;;;1.35;;
43363;SDS011;40636;52.424;-1.948;2022-07-10T14:31:49;1.75;;;1.27;;
43363;SDS011;40636;52.424;-1.948;2022-07-10T14:34:18;1.38;;;1.10;;
43363;SDS011;40636;52.424;-1.948;2022-07-10T14:36:45;1.70;;;1.30;;
43363;SDS011;40636;52.424;-1.948;2022-07-10T14:39:18;2.40;;;1.50;;
43363;SDS011;40636;52.424;-1.948;2022-07-10T14:41:46;1.80;;;1.40;;
43363;SDS011;40636;52.424;-1.948;2022-07-10T14:44:14;1.00;;;0.90;;
43363;SDS011;40636;52.424;-1.948;2022-07-10T14:46:41;2.80;;;2.28;;
43363;SDS011;40636;52.424;-1.948;2022-07-10T14:49:09;2.58;;;1.45;;
43363;SDS011;40636;52.424;-1.948;2022-07-10T14:51:36;2.63;;;1.38;;
43363;SDS011;40636;52.424;-1.948;2022-07-10T14:54:03;3.78;;;1.48;;
43363;SDS011;40636;52.424;-1.948;2022-07-10T14:56:31;2.25;;;1.25;;
43363;SDS011;40636;52.424;-1.948;2022-07-10T14:59:00;1.88;;;1.00;;
43363;SDS011;40636;52.424;-1.948;2022-07-10T15:01:40;2.47;;;1.52;;
43363;SDS011;40636;52.424;-1.948;2022-07-10T15:04:07;1.80;;;1.10;;
43363;SDS011;40636;52.424;-1.948;2022-07-10T15:06:36;1.63;;;1.05;;
43363;SDS011;40636;52.424;-1.948;2022-07-10T15:09:03;1.10;;;1.00;;
43363;SDS011;40636;52.424;-1.948;2022-07-10T15:11:31;1.50;;;0.90;;
43363;SDS011;40636;52.424;-1.948;2022-07-10T15:14:01;0.90;;;0.70;;
43363;SDS011;40636;52.424;-1.948;2022-07-10T15:16:31;1.20;;;1.10;;
43363;SDS011;40636;52.424;-1.948;2022-07-10T15:18:59;2.03;;;1.20;;
43363;SDS011;40636;52.424;-1.948;2022-07-10T15:21:28;4.00;;;1.33;;
43363;SDS011;40636;52.424;-1.948;2022-07-10T15:23:57;1.77;;;0.77;;